createdAt,value
2022-10-25T00:00:28.996Z,12.90
2022-10-25T00:02:58.377Z,12.90
2022-10-25T00:05:26.167Z,13.00
2022-10-25T00:07:53.877Z,13.00
2022-10-25T00:10:24.840Z,13.10
2022-10-25T00:12:53.531Z,13.10
2022-10-25T00:15:22.573Z,13.10
2022-10-25T00:17:50.917Z,13.10
2022-10-25T00:20:21.035Z,13.10
2022-10-25T00:22:49.321Z,13.10
2022-10-25T00:25:17.406Z,13.10
2022-10-25T00:27:45.123Z,13.10
2022-10-25T00:30:13.797Z,13.10
2022-10-25T00:32:41.568Z,13.00
2022-10-25T00:35:10.214Z,13.00
2022-10-25T00:37:39.748Z,12.90
2022-10-25T00:40:08.621Z,12.80
2022-10-25T00:42:36.377Z,12.70
2022-10-25T00:45:16.026Z,12.70
2022-10-25T00:47:50.953Z,12.70
2022-10-25T00:50:26.256Z,12.60
2022-10-25T00:52:59.653Z,12.60
2022-10-25T00:55:29.409Z,12.50
2022-10-25T00:58:00.575Z,12.50
2022-10-25T01:00:28.450Z,12.40
2022-10-25T01:05:29.398Z,12.40
2022-10-25T01:07:59.753Z,12.30
2022-10-25T01:10:27.835Z,12.20
2022-10-25T01:12:55.864Z,12.20
2022-10-25T01:15:28.707Z,12.10
2022-10-25T01:18:05.165Z,12.00
2022-10-25T01:21:01.583Z,11.90
2022-10-25T01:23:50.082Z,11.90
2022-10-25T01:26:42.381Z,11.80
2022-10-25T01:29:32.037Z,11.80
2022-10-25T01:32:07.762Z,11.70
2022-10-25T01:34:42.156Z,11.70
2022-10-25T01:37:15.762Z,11.60
2022-10-25T01:39:49.982Z,11.60
2022-10-25T01:42:24.926Z,11.60
2022-10-25T01:45:01.142Z,11.60
2022-10-25T01:47:36.777Z,11.70
2022-10-25T01:50:09.336Z,11.70
2022-10-25T01:52:37.073Z,11.80
2022-10-25T01:55:08.912Z,11.90
2022-10-25T01:57:53.219Z,12.00
2022-10-25T02:00:23.271Z,12.00
2022-10-25T02:03:04.211Z,12.00
2022-10-25T02:05:39.625Z,12.10
2022-10-25T02:08:13.303Z,12.10
2022-10-25T02:10:46.018Z,12.10
2022-10-25T02:13:22.985Z,12.20
2022-10-25T02:15:56.772Z,12.20
2022-10-25T02:21:03.617Z,12.30
2022-10-25T02:23:34.162Z,12.30
2022-10-25T02:26:03.458Z,12.40
2022-10-25T02:28:33.374Z,12.50
2022-10-25T02:31:02.272Z,12.50
2022-10-25T02:33:31.793Z,12.50
2022-10-25T02:36:06.926Z,12.60
2022-10-25T02:38:34.975Z,12.60
2022-10-25T02:41:04.549Z,12.60
2022-10-25T02:43:32.405Z,12.70
2022-10-25T02:46:00.482Z,12.70
2022-10-25T02:48:28.251Z,12.70
2022-10-25T02:50:57.341Z,12.80
2022-10-25T02:53:25.182Z,12.80
2022-10-25T02:56:00.573Z,12.90
2022-10-25T02:58:31.169Z,12.90
2022-10-25T03:01:00.869Z,12.90
2022-10-25T03:03:29.410Z,12.90
2022-10-25T03:05:58.754Z,12.90
2022-10-25T03:10:56.621Z,12.90
2022-10-25T03:13:24.365Z,12.90
2022-10-25T03:15:52.383Z,12.90
2022-10-25T03:18:20.183Z,12.90
2022-10-25T03:20:47.948Z,12.90
2022-10-25T03:23:17.353Z,12.80
2022-10-25T03:25:45.209Z,12.90
2022-10-25T03:28:12.958Z,12.90
2022-10-25T03:30:43.142Z,12.80
2022-10-25T03:33:10.922Z,12.80
2022-10-25T03:35:38.625Z,12.80
2022-10-25T03:38:06.388Z,12.80
2022-10-25T03:40:35.503Z,12.80
2022-10-25T03:43:03.343Z,12.70
2022-10-25T03:45:31.202Z,12.70
2022-10-25T03:47:58.918Z,12.70
2022-10-25T03:50:27.649Z,12.60
2022-10-25T03:52:55.448Z,12.60
2022-10-25T03:55:23.282Z,12.60
2022-10-25T03:57:52.314Z,12.60
2022-10-25T04:00:20.211Z,12.60
2022-10-25T04:02:48.135Z,12.60
2022-10-25T04:05:16.070Z,12.60
2022-10-25T04:07:43.884Z,12.60
2022-10-25T04:10:11.880Z,12.60
2022-10-25T04:12:39.790Z,12.60
2022-10-25T04:15:10.511Z,12.60
2022-10-25T04:17:38.963Z,12.60
2022-10-25T04:20:08.244Z,12.70
2022-10-25T04:25:07.549Z,12.70
2022-10-25T04:27:35.285Z,12.70
2022-10-25T04:30:03.896Z,12.80
2022-10-25T04:32:33.168Z,12.80
2022-10-25T04:35:00.919Z,12.80
2022-10-25T04:37:28.866Z,12.80
2022-10-25T04:39:56.886Z,12.80
2022-10-25T04:42:24.669Z,12.90
2022-10-25T04:44:52.409Z,12.90
2022-10-25T04:47:20.141Z,12.90
2022-10-25T04:49:49.750Z,12.90
2022-10-25T04:52:19.899Z,12.90
2022-10-25T04:54:47.656Z,12.90
2022-10-25T04:57:15.414Z,12.90
2022-10-25T04:59:43.368Z,13.00
2022-10-25T05:02:11.103Z,13.00
2022-10-25T05:04:38.808Z,13.00
2022-10-25T05:07:07.927Z,12.90
2022-10-25T05:09:35.694Z,13.00
2022-10-25T05:12:03.491Z,13.00
2022-10-25T05:14:31.486Z,13.00
2022-10-25T05:16:59.277Z,13.00
2022-10-25T05:19:27.162Z,13.00
2022-10-25T05:21:56.626Z,13.00
2022-10-25T05:24:25.742Z,13.00
2022-10-25T05:26:53.468Z,13.00
2022-10-25T05:29:21.270Z,13.00
2022-10-25T05:31:49.058Z,13.00
2022-10-25T05:34:16.828Z,13.00
2022-10-25T05:36:44.599Z,13.00
2022-10-25T05:39:12.423Z,13.00
2022-10-25T05:41:41.463Z,13.00
2022-10-25T05:44:09.475Z,13.00
2022-10-25T05:46:37.219Z,13.00
2022-10-25T05:49:05.880Z,13.00
2022-10-25T05:51:36.184Z,13.10
2022-10-25T05:54:06.514Z,13.00
2022-10-25T05:56:38.612Z,13.10
2022-10-25T05:59:09.647Z,13.00
2022-10-25T06:01:39.403Z,13.10
2022-10-25T06:04:07.915Z,13.10
2022-10-25T06:06:36.959Z,13.00
2022-10-25T06:09:05.298Z,13.00
2022-10-25T06:11:34.002Z,13.00
2022-10-25T06:14:01.984Z,13.00
2022-10-25T06:16:31.469Z,13.00
2022-10-25T06:18:59.406Z,13.00
2022-10-25T06:21:29.751Z,13.00
2022-10-25T06:23:59.093Z,13.00
2022-10-25T06:26:29.599Z,13.00
2022-10-25T06:28:59.471Z,13.10
2022-10-25T06:31:28.033Z,13.10
2022-10-25T06:33:57.359Z,13.10
2022-10-25T06:36:27.042Z,13.10
2022-10-25T06:38:56.242Z,13.10
2022-10-25T06:41:26.985Z,13.10
2022-10-25T06:43:55.411Z,13.20
2022-10-25T06:46:24.968Z,13.20
2022-10-25T06:48:55.325Z,13.20
2022-10-25T06:51:29.594Z,13.20
2022-10-25T06:53:58.975Z,13.20
2022-10-25T06:56:28.005Z,13.20
2022-10-25T06:58:56.524Z,13.20
2022-10-25T07:01:30.961Z,13.20
2022-10-25T07:03:59.642Z,13.30
2022-10-25T07:06:35.829Z,13.30
2022-10-25T07:09:06.537Z,13.20
2022-10-25T07:11:38.390Z,13.20
2022-10-25T07:14:06.391Z,13.30
2022-10-25T07:16:34.158Z,13.20
2022-10-25T07:19:02.800Z,13.30
2022-10-25T07:21:33.015Z,13.20
2022-10-25T07:24:01.668Z,13.30
2022-10-25T07:26:31.591Z,13.20
2022-10-25T07:29:01.305Z,13.20
2022-10-25T07:31:35.587Z,13.20
2022-10-25T07:34:05.610Z,13.20
2022-10-25T07:36:35.195Z,13.20
2022-10-25T07:39:05.903Z,13.20
2022-10-25T07:41:36.106Z,13.30
2022-10-25T07:44:04.254Z,13.30
2022-10-25T07:46:32.290Z,13.30
2022-10-25T07:49:00.058Z,13.30
2022-10-25T07:51:27.931Z,13.30
2022-10-25T07:53:57.014Z,13.30
2022-10-25T07:56:24.746Z,13.30
2022-10-25T07:58:52.855Z,13.30
2022-10-25T08:01:23.111Z,13.30
2022-10-25T08:03:51.106Z,13.30
2022-10-25T08:09:14.947Z,13.30
2022-10-25T08:11:50.943Z,13.40
2022-10-25T08:14:20.070Z,13.40
2022-10-25T08:16:47.834Z,13.40
2022-10-25T08:19:15.566Z,13.50
2022-10-25T08:21:44.086Z,13.50
2022-10-25T08:24:14.119Z,13.60
2022-10-25T08:26:41.923Z,13.60
2022-10-25T08:29:09.831Z,13.70
2022-10-25T08:31:37.555Z,13.70
2022-10-25T08:36:41.898Z,13.70
2022-10-25T08:39:09.854Z,13.70
2022-10-25T08:41:48.852Z,13.70
2022-10-25T08:44:46.593Z,13.80
2022-10-25T08:47:21.173Z,13.80
2022-10-25T08:49:56.862Z,13.80
2022-10-25T08:52:30.327Z,13.80
2022-10-25T08:55:03.180Z,13.80
2022-10-25T08:57:39.041Z,13.80
2022-10-25T09:00:13.690Z,13.80
2022-10-25T09:02:48.772Z,13.90
2022-10-25T09:05:22.948Z,13.90
2022-10-25T09:08:09.516Z,13.90
2022-10-25T09:10:50.769Z,14.00
2022-10-25T09:16:16.975Z,14.00
2022-10-25T09:18:49.837Z,14.10
2022-10-25T09:21:22.841Z,14.20
2022-10-25T09:24:00.103Z,14.20
2022-10-25T09:26:42.222Z,14.20
2022-10-25T09:29:25.035Z,14.20
2022-10-25T09:32:01.284Z,14.30
2022-10-25T09:34:33.869Z,14.30
2022-10-25T09:37:11.549Z,14.40
2022-10-25T09:39:43.739Z,14.30
2022-10-25T09:42:22.633Z,14.40
2022-10-25T09:44:56.123Z,14.40
2022-10-25T09:47:33.551Z,14.50
2022-10-25T09:50:29.305Z,14.50
2022-10-25T09:53:09.123Z,14.60
2022-10-25T09:55:42.295Z,14.60
2022-10-25T09:58:16.114Z,14.50
2022-10-25T10:00:45.315Z,14.60
2022-10-25T10:03:14.385Z,14.50
2022-10-25T10:05:47.670Z,14.50
2022-10-25T10:08:15.452Z,14.60
2022-10-25T10:10:44.155Z,14.60
2022-10-25T10:13:18.217Z,14.60
2022-10-25T10:15:53.716Z,14.60
2022-10-25T10:18:27.730Z,14.50
2022-10-25T10:21:09.031Z,14.60
2022-10-25T10:23:45.553Z,14.60
2022-10-25T10:26:23.302Z,14.60
2022-10-25T10:29:21.307Z,14.60
2022-10-25T10:31:59.664Z,14.60
2022-10-25T10:34:30.688Z,14.60
2022-10-25T10:37:18.560Z,14.60
2022-10-25T10:39:51.615Z,14.60
2022-10-25T10:42:23.255Z,14.60
2022-10-25T10:45:16.593Z,14.70
2022-10-25T10:47:55.429Z,14.60
2022-10-25T10:50:27.202Z,14.60
2022-10-25T10:53:00.315Z,14.80
2022-10-25T10:55:31.811Z,14.80
2022-10-25T10:58:04.373Z,14.80
2022-10-25T11:00:33.639Z,14.80
2022-10-25T11:03:02.789Z,14.90
2022-10-25T11:05:33.901Z,14.90
2022-10-25T11:08:04.493Z,14.90
2022-10-25T11:10:34.469Z,15.00
2022-10-25T11:13:14.382Z,15.10
2022-10-25T11:15:52.924Z,15.10
2022-10-25T11:18:31.589Z,15.10
2022-10-25T11:21:05.580Z,15.10
2022-10-25T11:23:43.115Z,15.10
2022-10-25T11:26:17.866Z,15.20
2022-10-25T11:28:53.628Z,15.30
2022-10-25T11:31:28.268Z,15.40
2022-10-25T11:34:12.591Z,15.40
2022-10-25T11:37:03.123Z,15.40
2022-10-25T11:39:41.943Z,15.40
2022-10-25T11:42:27.039Z,15.40
2022-10-25T11:45:46.864Z,15.30
2022-10-25T11:48:33.447Z,15.30
2022-10-25T11:51:11.387Z,15.30
2022-10-25T11:53:58.174Z,15.40
2022-10-25T11:56:37.559Z,15.50
2022-10-25T11:59:15.139Z,15.60
2022-10-25T12:01:57.640Z,15.70
2022-10-25T12:04:41.338Z,15.70
2022-10-25T12:07:14.978Z,15.60
2022-10-25T12:09:51.262Z,15.60
2022-10-25T12:12:23.699Z,15.50
2022-10-25T12:14:57.041Z,15.40
2022-10-25T12:17:30.255Z,15.30
2022-10-25T12:20:00.323Z,15.20
2022-10-25T12:22:34.725Z,15.30
2022-10-25T12:25:06.134Z,15.50
2022-10-25T12:27:35.689Z,15.60
2022-10-25T12:30:05.864Z,15.60
2022-10-25T12:32:39.822Z,15.70
2022-10-25T12:35:17.252Z,15.80
2022-10-25T12:37:55.056Z,15.80
2022-10-25T12:40:28.993Z,15.80
2022-10-25T12:43:00.654Z,16.00
2022-10-25T12:46:07.193Z,16.00
2022-10-25T12:48:56.211Z,15.90
2022-10-25T12:51:41.993Z,15.90
2022-10-25T12:54:39.205Z,15.90
2022-10-25T12:57:17.630Z,16.00
2022-10-25T13:00:06.313Z,16.00
2022-10-25T13:03:19.298Z,16.00
2022-10-25T13:06:17.985Z,15.90
2022-10-25T13:08:46.345Z,15.90
2022-10-25T13:11:15.572Z,15.90
2022-10-25T13:13:50.570Z,15.90
2022-10-25T13:16:25.835Z,15.90
2022-10-25T13:19:16.470Z,15.90
2022-10-25T13:22:30.649Z,15.90
2022-10-25T13:25:00.449Z,15.90
2022-10-25T13:27:30.871Z,16.00
2022-10-25T13:30:02.919Z,16.00
2022-10-25T13:33:28.623Z,16.00
2022-10-25T13:36:01.753Z,16.00
2022-10-25T13:38:36.569Z,16.10
2022-10-25T13:41:19.654Z,16.10
2022-10-25T13:44:01.707Z,16.00
2022-10-25T13:46:39.762Z,15.90
2022-10-25T13:49:29.160Z,15.90
2022-10-25T13:52:00.811Z,15.90
2022-10-25T13:54:39.155Z,16.00
2022-10-25T13:57:51.403Z,16.00
2022-10-25T14:00:37.199Z,16.00
2022-10-25T14:03:47.266Z,16.00
2022-10-25T14:06:27.719Z,15.90
2022-10-25T14:12:15.583Z,15.80
2022-10-25T14:14:52.750Z,15.80
2022-10-25T14:20:30.475Z,15.60
2022-10-25T14:23:01.622Z,15.60
2022-10-25T14:25:35.711Z,15.60
2022-10-25T14:28:14.546Z,15.60
2022-10-25T14:31:09.171Z,15.50
2022-10-25T14:33:46.313Z,15.50
2022-10-25T14:36:26.967Z,15.50
2022-10-25T14:38:57.301Z,15.40
2022-10-25T14:41:28.365Z,15.40
2022-10-25T14:43:57.790Z,15.30
2022-10-25T14:46:26.970Z,15.30
2022-10-25T14:48:58.375Z,15.30
2022-10-25T14:51:29.321Z,15.20
2022-10-25T14:54:01.322Z,15.10
2022-10-25T14:56:33.036Z,15.10
2022-10-25T14:59:01.777Z,15.00
2022-10-25T15:01:30.151Z,14.90
2022-10-25T15:04:00.950Z,14.90
2022-10-25T15:06:33.344Z,14.80
2022-10-25T15:09:40.590Z,14.80
2022-10-25T15:12:17.960Z,14.80
2022-10-25T15:14:48.431Z,14.80
2022-10-25T15:17:28.083Z,14.70
2022-10-25T15:20:08.349Z,14.70
2022-10-25T15:22:44.242Z,14.60
2022-10-25T15:25:23.182Z,14.60
2022-10-25T15:27:54.493Z,14.60
2022-10-25T15:30:37.261Z,14.50
2022-10-25T15:33:06.721Z,14.40
2022-10-25T15:35:43.853Z,14.40
2022-10-25T15:38:12.198Z,14.40
2022-10-25T15:40:40.453Z,14.30
2022-10-25T15:43:08.268Z,14.20
2022-10-25T15:46:03.415Z,14.20
2022-10-25T15:48:32.035Z,14.10
2022-10-25T15:51:01.567Z,14.10
2022-10-25T15:53:29.531Z,14.10
2022-10-25T15:55:58.117Z,14.10
2022-10-25T15:58:26.006Z,14.00
2022-10-25T16:00:56.522Z,14.00
2022-10-25T16:03:25.659Z,14.00
2022-10-25T16:05:53.798Z,13.90
2022-10-25T16:08:22.946Z,13.90
2022-10-25T16:10:50.887Z,13.90
2022-10-25T16:13:24.394Z,13.90
2022-10-25T16:15:52.365Z,13.80
2022-10-25T16:18:20.122Z,13.80
2022-10-25T16:20:48.760Z,13.70
2022-10-25T16:23:17.170Z,13.70
2022-10-25T16:25:46.329Z,13.60
2022-10-25T16:28:15.428Z,13.60
2022-10-25T16:30:43.859Z,13.60
2022-10-25T16:33:11.738Z,13.50
2022-10-25T16:35:39.506Z,13.50
2022-10-25T16:38:08.098Z,13.50
2022-10-25T16:40:36.078Z,13.50
2022-10-25T16:43:05.521Z,13.50
2022-10-25T16:45:36.869Z,13.50
2022-10-25T16:48:06.255Z,13.50
2022-10-25T16:50:35.134Z,13.40
2022-10-25T16:53:08.661Z,13.40
2022-10-25T16:55:36.856Z,13.30
2022-10-25T16:58:06.281Z,13.30
2022-10-25T17:00:36.704Z,13.30
2022-10-25T17:03:05.416Z,13.30
2022-10-25T17:05:33.516Z,13.20
2022-10-25T17:08:01.282Z,13.20
2022-10-25T17:10:29.092Z,13.20
2022-10-25T17:13:03.465Z,13.10
2022-10-25T17:15:33.518Z,13.10
2022-10-25T17:18:01.263Z,13.10
2022-10-25T17:20:29.041Z,13.10
2022-10-25T17:22:57.390Z,13.10
2022-10-25T17:25:25.195Z,13.10
2022-10-25T17:27:53.424Z,13.10
2022-10-25T17:30:25.318Z,13.10
2022-10-25T17:32:54.602Z,13.00
2022-10-25T17:35:28.610Z,13.00
2022-10-25T17:37:58.206Z,13.00
2022-10-25T17:40:25.937Z,13.00
2022-10-25T17:42:53.825Z,13.00
2022-10-25T17:45:22.480Z,12.90
2022-10-25T17:47:50.627Z,12.90
2022-10-25T17:50:22.416Z,12.90
2022-10-25T17:52:51.109Z,12.80
2022-10-25T17:55:18.858Z,12.80
2022-10-25T17:57:47.183Z,12.80
2022-10-25T18:00:16.010Z,12.80
2022-10-25T18:02:50.345Z,12.80
2022-10-25T18:05:21.369Z,12.80
2022-10-25T18:07:50.257Z,12.80
2022-10-25T18:10:18.339Z,12.80
2022-10-25T18:12:46.560Z,12.80
2022-10-25T18:15:17.370Z,12.80
2022-10-25T18:17:46.761Z,12.80
2022-10-25T18:20:15.399Z,12.70
2022-10-25T18:22:44.625Z,12.80
2022-10-25T18:25:12.810Z,12.70
2022-10-25T18:27:40.598Z,12.80
2022-10-25T18:30:10.462Z,12.80
2022-10-25T18:32:38.502Z,12.80
2022-10-25T18:35:06.732Z,12.80
2022-10-25T18:37:35.462Z,12.80
2022-10-25T18:40:05.151Z,12.70
2022-10-25T18:42:32.902Z,12.70
2022-10-25T18:45:01.429Z,12.60
2022-10-25T18:47:29.452Z,12.60
2022-10-25T18:49:57.180Z,12.60
2022-10-25T18:52:25.134Z,12.60
2022-10-25T18:54:53.386Z,12.60
2022-10-25T18:57:22.441Z,12.50
2022-10-25T18:59:50.468Z,12.50
2022-10-25T19:02:18.318Z,12.50
2022-10-25T19:04:46.149Z,12.50
2022-10-25T19:07:14.349Z,12.50
2022-10-25T19:09:42.095Z,12.50
2022-10-25T19:12:09.808Z,12.50
2022-10-25T19:14:39.497Z,12.50
2022-10-25T19:17:07.304Z,12.40
2022-10-25T19:19:35.050Z,12.40
2022-10-25T19:22:02.796Z,12.40
2022-10-25T19:24:30.957Z,12.40
2022-10-25T19:27:24.030Z,12.40
2022-10-25T19:29:53.199Z,12.40
2022-10-25T19:32:20.946Z,12.40
2022-10-25T19:34:48.773Z,12.40
2022-10-25T19:37:16.613Z,12.30
2022-10-25T19:39:44.920Z,12.30
2022-10-25T19:42:12.760Z,12.30
2022-10-25T19:44:42.873Z,12.30
2022-10-25T19:47:12.047Z,12.40
2022-10-25T19:49:39.858Z,12.30
2022-10-25T19:52:07.859Z,12.30
2022-10-25T19:54:35.863Z,12.30
2022-10-25T19:57:05.582Z,12.30
2022-10-25T19:59:33.462Z,12.30
2022-10-25T20:02:01.523Z,12.30
2022-10-25T20:04:31.004Z,12.30
2022-10-25T20:06:59.515Z,12.30
2022-10-25T20:09:27.323Z,12.20
2022-10-25T20:11:55.168Z,12.20
2022-10-25T20:14:22.938Z,12.20
2022-10-25T20:16:50.750Z,12.20
2022-10-25T20:19:18.474Z,12.20
2022-10-25T20:21:47.944Z,12.20
2022-10-25T20:24:15.850Z,12.20
2022-10-25T20:26:44.596Z,12.20
2022-10-25T20:29:20.113Z,12.10
2022-10-25T20:31:49.332Z,12.10
2022-10-25T20:37:11.017Z,12.10
2022-10-25T20:39:38.785Z,12.10
2022-10-25T20:42:06.614Z,12.10
2022-10-25T20:44:34.514Z,12.10
2022-10-25T20:47:02.217Z,12.10
2022-10-25T20:49:30.126Z,12.10
2022-10-25T20:51:58.522Z,12.10
2022-10-25T20:54:27.603Z,12.00
2022-10-25T20:56:55.363Z,12.00
2022-10-25T20:59:23.099Z,12.00
2022-10-25T21:01:51.595Z,12.00
2022-10-25T21:04:26.011Z,12.00
2022-10-25T21:07:04.527Z,12.00
2022-10-25T21:09:33.594Z,12.00
2022-10-25T21:12:01.394Z,12.00
2022-10-25T21:14:29.332Z,12.00
2022-10-25T21:16:57.182Z,11.90
2022-10-25T21:19:24.927Z,11.90
2022-10-25T21:21:53.197Z,11.90
2022-10-25T21:24:20.925Z,11.90
2022-10-25T21:26:51.487Z,11.90
2022-10-25T21:29:20.526Z,11.90
2022-10-25T21:31:48.997Z,11.90
2022-10-25T21:36:50.271Z,11.90
2022-10-25T21:39:22.658Z,11.90
2022-10-25T21:41:52.405Z,11.80
2022-10-25T21:44:22.199Z,11.80
2022-10-25T21:46:50.448Z,11.80
2022-10-25T21:49:18.261Z,11.70
2022-10-25T21:51:46.140Z,11.60
2022-10-25T21:54:14.256Z,11.50
2022-10-25T21:56:41.962Z,11.40
2022-10-25T21:59:11.038Z,11.40
2022-10-25T22:01:38.868Z,11.30
2022-10-25T22:04:06.721Z,11.30
2022-10-25T22:09:03.822Z,11.00
2022-10-25T22:11:34.451Z,10.90
2022-10-25T22:14:04.255Z,10.90
2022-10-25T22:16:34.420Z,10.80
2022-10-25T22:19:04.887Z,10.80
2022-10-25T22:21:34.819Z,10.70
2022-10-25T22:24:02.947Z,10.70
2022-10-25T22:26:31.572Z,10.70
2022-10-25T22:29:00.129Z,10.80
2022-10-25T22:31:30.886Z,10.70
2022-10-25T22:34:01.622Z,10.70
2022-10-25T22:36:31.481Z,10.60
2022-10-25T22:38:59.551Z,10.60
2022-10-25T22:41:29.614Z,10.60
2022-10-25T22:43:58.596Z,10.60
2022-10-25T22:46:28.476Z,10.60
2022-10-25T22:48:57.951Z,10.50
2022-10-25T22:51:28.896Z,10.60
2022-10-25T22:53:57.043Z,10.50
2022-10-25T22:56:26.616Z,10.50
2022-10-25T22:58:56.180Z,10.50
2022-10-25T23:01:25.686Z,10.50
2022-10-25T23:03:55.678Z,10.50
2022-10-25T23:06:25.552Z,10.50
2022-10-25T23:08:57.622Z,10.50
2022-10-25T23:11:26.643Z,10.50
2022-10-25T23:13:54.824Z,10.50
2022-10-25T23:16:22.593Z,10.50
2022-10-25T23:18:50.397Z,10.40
2022-10-25T23:21:20.230Z,10.40
2022-10-25T23:23:48.685Z,10.40
2022-10-25T23:26:21.302Z,10.40
2022-10-25T23:28:49.693Z,10.50
2022-10-25T23:31:18.206Z,10.60
2022-10-25T23:33:46.541Z,10.60
2022-10-25T23:36:15.707Z,10.60
2022-10-25T23:38:43.633Z,10.60
2022-10-25T23:41:12.096Z,10.60
2022-10-25T23:43:41.541Z,10.70
2022-10-25T23:46:10.631Z,10.70
2022-10-25T23:48:38.732Z,10.80
2022-10-25T23:51:08.744Z,10.80
2022-10-25T23:53:37.458Z,10.80
2022-10-25T23:56:07.136Z,10.80
2022-10-25T23:58:35.218Z,10.80
